Homer, MI (49245)

7:33 AM EDT on April 27, 2015 (GMT -0400)
Homer, MI | | Change Station
CLOSE
Current Station
Personal Weather Station
Location: Homer, MI
Elevation: 968 ft
Nearby Weather Stations

Elev 968 ft 42.15 °N, 84.80 °W | Updated 3 minutes ago

Mostly Cloudy
Mostly Cloudy
38.1 °F
Feels Like 38 °F
N
2.7
Wind Variable Wind from NW

Today
High -- | Low -- °F
--% Chance of Precip.
Yesterday
High -- | Low -- °F
Precip. -- in
6:40 AM 8:33 PM
Waxing Gibbous, 64% visible
Pressure 29.97 in
Visibility 10.0 miles
Clouds Scattered Clouds 7000 ft
Windchill 38 °F
Dew Point 33 °F
Humidity 83%
Rainfall 0.00 in
Snow Depth Not available.
UV 0 out of 12
Pollen 9.70 out of 12
Air Quality Not available.
Flu Activity Regional
METAR KRMY 271113Z AUTO 32004KT 10SM SCT070 03/00 A2997 RMK AO2 T00301005

More Conditions Fewer Conditions

Pressure 29.97 in
Visibility 10.0 miles
Clouds Scattered Clouds 7000 ft
Windchill 38 °F
Dew Point 33 °F
Humidity 83%
Rainfall 0.00 in
Snow Depth Not available.
UV 0 out of 12
Pollen 9.70 out of 12
Air Quality Not available.
Flu Activity Regional
METAR KRMY 271113Z AUTO 32004KT 10SM SCT070 03/00 A2997 RMK AO2 T00301005

More Conditions Fewer Conditions

10-Day Weather Forecast

Almanac

Astronomy

Apr. 27, 2015 Rise Set
Actual Time
Civil Twilight
Nautical Twilight
Astronomical Twilight
Moon
Length of Visible Light
Length of Day
Tomorrow will be .
, % of the Moon is Illuminated

Today's Extremes

State Highs State Lows

Community

WunderPhotos

Upload Photos

1,817,283 photos uploaded!

WunderBlogs® & News

Nearby

Air Quality

  Air Quality AQ Index Pollutant
Not available.

Snow Depth

Station Depth Elevation

Earthquake Activity

City Distance Mag. Time & Date
Minimum magnitude displayed is 2.5.

Coastal Water Temperatures

Place Temperature

Stations

Nearby Weather Stations

Station Location Temp. Windchill Dew Point Humidity Wind Precip. Elev Updated Type